createdAt,value
2019-04-22T00:01:36.853Z,22.77
2019-04-22T00:04:13.575Z,22.33
2019-04-22T00:07:03.146Z,22.20
2019-04-22T00:09:41.798Z,22.67
2019-04-22T00:12:16.629Z,23.37
2019-04-22T00:14:35.075Z,23.17
2019-04-22T00:17:16.664Z,22.70
2019-04-22T00:19:45.595Z,24.43
2019-04-22T00:22:15.396Z,23.50
2019-04-22T00:24:44.570Z,24.50
2019-04-22T00:27:20.215Z,22.47
2019-04-22T00:29:59.904Z,23.27
2019-04-22T00:32:19.870Z,23.77
2019-04-22T00:34:59.320Z,24.43
2019-04-22T00:37:28.572Z,22.60
2019-04-22T00:40:03.150Z,22.90
2019-04-22T00:42:34.735Z,24.17
2019-04-22T00:45:07.986Z,23.13
2019-04-22T00:50:23.777Z,22.40
2019-04-22T00:52:40.368Z,22.53
2019-04-22T00:55:12.379Z,24.07
2019-04-22T00:57:41.545Z,23.27
2019-04-22T01:00:11.979Z,22.67
2019-04-22T01:02:49.489Z,22.63
2019-04-22T01:07:46.443Z,23.90
2019-04-22T01:10:18.834Z,23.60
2019-04-22T01:12:51.299Z,22.30
2019-04-22T01:15:23.617Z,22.43
2019-04-22T01:17:53.007Z,22.30
2019-04-22T01:20:52.397Z,21.97
2019-04-22T01:22:51.886Z,23.37
2019-04-22T01:25:21.200Z,22.37
2019-04-22T01:27:50.273Z,23.03
2019-04-22T01:30:17.422Z,22.77
2019-04-22T01:32:41.822Z,22.27
2019-04-22T01:35:26.429Z,21.40
2019-04-22T01:37:54.197Z,22.90
2019-04-22T01:40:38.563Z,21.50
2019-04-22T01:43:09.567Z,21.40
2019-04-22T01:45:39.326Z,21.50
2019-04-22T01:48:16.144Z,20.57
2019-04-22T01:50:44.308Z,24.03
2019-04-22T01:53:24.665Z,21.97
2019-04-22T01:55:55.536Z,21.33
2019-04-22T01:58:11.212Z,20.90
2019-04-22T02:00:53.477Z,20.80
2019-04-22T02:03:25.737Z,21.37
2019-04-22T02:05:52.164Z,20.20
2019-04-22T02:08:33.343Z,20.07
2019-04-22T02:10:54.848Z,21.47
2019-04-22T02:13:29.038Z,19.83
2019-04-22T02:15:58.772Z,21.13
2019-04-22T02:18:35.412Z,21.67
2019-04-22T02:20:54.919Z,21.13
2019-04-22T02:31:25.992Z,20.10
2019-04-22T02:36:23.019Z,21.37
2019-04-22T02:46:34.877Z,19.57
2019-04-22T02:56:31.541Z,20.13
2019-04-22T02:59:03.896Z,23.80
2019-04-22T03:16:40.758Z,19.57
2019-04-22T03:21:44.686Z,19.07
2019-04-22T03:24:25.573Z,19.03
2019-04-22T03:26:43.322Z,19.93
2019-04-22T03:29:11.153Z,19.97
2019-04-22T03:42:06.388Z,19.10
2019-04-22T03:47:12.064Z,20.63
2019-04-22T03:54:39.994Z,20.07
2019-04-22T03:57:26.545Z,20.23
2019-04-22T04:02:21.422Z,20.00
2019-04-22T04:04:37.123Z,19.77
2019-04-22T04:07:20.152Z,20.40
2019-04-22T04:12:21.100Z,20.77
2019-04-22T04:17:20.260Z,20.60
2019-04-22T04:20:05.858Z,26.73
2019-04-22T04:22:30.489Z,21.40
2019-04-22T04:25:08.863Z,20.00
2019-04-22T04:32:36.450Z,21.13
2019-04-22T04:40:11.645Z,19.53
2019-04-22T04:52:50.843Z,19.40
2019-04-22T04:55:18.068Z,18.60
2019-04-22T05:02:48.915Z,19.17
2019-04-22T05:05:17.664Z,19.57
2019-04-22T05:07:48.325Z,17.57
2019-04-22T05:10:31.378Z,18.57
2019-04-22T05:17:55.100Z,18.90
2019-04-22T05:20:26.659Z,18.67
2019-04-22T05:22:59.430Z,17.63
2019-04-22T05:25:19.017Z,17.23
2019-04-22T05:27:47.161Z,20.10
2019-04-22T05:30:32.410Z,19.03
2019-04-22T05:33:02.971Z,20.57
2019-04-22T05:37:58.043Z,18.03
2019-04-22T05:42:56.467Z,18.93
2019-04-22T05:45:25.443Z,17.00
2019-04-22T05:47:59.276Z,18.30
2019-04-22T05:50:27.207Z,21.63
2019-04-22T05:53:20.778Z,18.83
2019-04-22T05:55:43.297Z,17.50
2019-04-22T05:58:10.394Z,16.73
2019-04-22T06:01:12.785Z,17.13
2019-04-22T06:03:11.951Z,18.43
2019-04-22T06:05:47.250Z,16.57
2019-04-22T06:08:17.102Z,17.30
2019-04-22T06:13:12.079Z,14.83
2019-04-22T06:15:49.162Z,16.47
2019-04-22T06:18:27.549Z,15.33
2019-04-22T06:20:59.397Z,17.40
2019-04-22T06:23:35.286Z,15.27
2019-04-22T06:26:10.032Z,15.90
2019-04-22T06:28:35.274Z,14.93
2019-04-22T06:31:06.631Z,15.27
2019-04-22T06:33:34.696Z,15.80
2019-04-22T06:36:03.407Z,14.80
2019-04-22T06:38:34.070Z,15.30
2019-04-22T06:41:09.135Z,14.43
2019-04-22T06:43:47.543Z,16.13
2019-04-22T06:46:09.876Z,14.60
2019-04-22T06:48:36.043Z,15.63
2019-04-22T06:51:09.438Z,15.00
2019-04-22T06:53:40.571Z,14.67
2019-04-22T06:56:12.669Z,14.20
2019-04-22T06:58:50.637Z,14.73
2019-04-22T07:01:19.329Z,13.60
2019-04-22T07:03:52.352Z,16.93
2019-04-22T07:06:20.052Z,14.47
2019-04-22T07:11:18.986Z,13.30
2019-04-22T07:13:49.831Z,14.90
2019-04-22T07:16:30.253Z,15.07
2019-04-22T07:21:27.471Z,12.83
2019-04-22T07:26:31.859Z,14.10
2019-04-22T07:28:58.265Z,15.73
2019-04-22T07:31:28.890Z,13.60
2019-04-22T07:34:03.808Z,13.50
2019-04-22T07:36:50.642Z,16.13
2019-04-22T07:39:03.996Z,14.77
2019-04-22T07:41:33.141Z,15.80
2019-04-22T07:44:13.099Z,12.67
2019-04-22T07:46:43.185Z,13.70
2019-04-22T07:49:13.236Z,13.37
2019-04-22T07:51:36.347Z,13.20
2019-04-22T07:54:07.558Z,12.87
2019-04-22T07:56:43.938Z,13.83
2019-04-22T07:59:18.478Z,12.03
2019-04-22T08:01:47.146Z,11.70
2019-04-22T08:04:24.382Z,12.80
2019-04-22T08:06:54.954Z,12.23
2019-04-22T08:09:30.950Z,13.27
2019-04-22T08:12:04.135Z,12.27
2019-04-22T08:14:31.265Z,11.83
2019-04-22T08:17:01.457Z,12.27
2019-04-22T08:19:28.717Z,12.43
2019-04-22T08:22:02.877Z,11.77
2019-04-22T08:24:35.993Z,11.73
2019-04-22T08:27:04.517Z,10.90
2019-04-22T08:29:37.706Z,11.00
2019-04-22T08:32:06.450Z,11.27
2019-04-22T08:34:47.381Z,11.30
2019-04-22T08:37:37.045Z,11.20
2019-04-22T08:39:40.916Z,11.70
2019-04-22T08:42:20.505Z,10.60
2019-04-22T08:45:01.122Z,11.77
2019-04-22T08:47:21.522Z,12.77
2019-04-22T08:49:50.466Z,13.73
2019-04-22T08:52:16.301Z,11.17
2019-04-22T08:54:50.498Z,12.07
2019-04-22T08:57:24.509Z,11.23
2019-04-22T08:59:50.204Z,10.30
2019-04-22T09:02:25.960Z,10.80
2019-04-22T09:04:51.758Z,10.27
2019-04-22T09:07:41.379Z,10.80
2019-04-22T09:10:00.048Z,10.90
2019-04-22T09:12:37.069Z,16.50
2019-04-22T09:14:49.254Z,11.33
2019-04-22T09:17:28.372Z,10.77
2019-04-22T09:20:00.250Z,11.97
2019-04-22T09:22:47.269Z,10.43
2019-04-22T09:25:03.767Z,10.27
2019-04-22T09:27:39.923Z,10.07
2019-04-22T09:30:10.317Z,9.87
2019-04-22T09:35:11.471Z,9.63
2019-04-22T09:42:44.050Z,8.83
2019-04-22T09:45:10.239Z,9.03
2019-04-22T09:47:53.623Z,8.20
2019-04-22T09:50:15.257Z,8.13
2019-04-22T09:52:43.649Z,8.77
2019-04-22T09:55:18.237Z,9.97
2019-04-22T09:57:52.354Z,8.50
2019-04-22T10:00:20.872Z,8.20
2019-04-22T10:03:00.924Z,7.83
2019-04-22T10:05:27.418Z,8.20
2019-04-22T10:07:59.378Z,8.07
2019-04-22T10:10:26.841Z,7.30
2019-04-22T10:12:54.019Z,7.53
2019-04-22T10:15:33.321Z,6.93
2019-04-22T10:18:02.711Z,6.57
2019-04-22T10:20:31.447Z,7.13
2019-04-22T10:23:05.870Z,7.20
2019-04-22T10:25:39.783Z,6.63
2019-04-22T10:28:08.909Z,6.60
2019-04-22T10:30:44.579Z,6.43
2019-04-22T10:33:04.665Z,7.33
2019-04-22T10:35:20.989Z,6.67
2019-04-22T10:37:48.560Z,10.20
2019-04-22T10:40:29.548Z,7.80
2019-04-22T10:42:59.450Z,9.60
2019-04-22T10:45:30.360Z,10.57
2019-04-22T10:48:01.373Z,9.50
2019-04-22T10:50:46.424Z,6.87
2019-04-22T10:53:17.841Z,11.53
2019-04-22T10:55:49.327Z,7.73
2019-04-22T10:58:18.772Z,11.47
2019-04-22T11:00:50.205Z,7.47
2019-04-22T11:03:20.284Z,8.43
2019-04-22T11:05:50.578Z,6.60
2019-04-22T11:08:28.501Z,11.77
2019-04-22T11:11:07.109Z,7.87
2019-04-22T11:13:24.151Z,10.57
2019-04-22T11:15:55.015Z,7.63
2019-04-22T11:18:25.355Z,10.00
2019-04-22T11:20:55.771Z,10.37
2019-04-22T11:23:26.894Z,10.67
2019-04-22T11:25:57.653Z,7.40
2019-04-22T11:28:27.770Z,8.67
2019-04-22T11:30:58.705Z,7.27
2019-04-22T11:33:28.376Z,7.97
2019-04-22T11:35:57.880Z,5.90
2019-04-22T11:38:28.724Z,8.30
2019-04-22T11:41:03.106Z,6.13
2019-04-22T11:43:32.332Z,5.77
2019-04-22T11:46:03.246Z,6.30
2019-04-22T11:48:33.985Z,7.63
2019-04-22T11:51:04.402Z,6.67
2019-04-22T11:53:34.588Z,5.10
2019-04-22T11:56:04.732Z,4.97
2019-04-22T11:58:35.376Z,6.57
2019-04-22T12:01:06.618Z,4.77
2019-04-22T12:03:38.009Z,7.23
2019-04-22T12:06:08.420Z,5.97
2019-04-22T12:08:39.573Z,5.80
2019-04-22T12:11:11.596Z,5.33
2019-04-22T12:13:42.214Z,4.50
2019-04-22T12:16:11.811Z,4.37
2019-04-22T12:18:42.981Z,7.17
2019-04-22T12:21:15.156Z,6.23
2019-04-22T12:23:45.220Z,5.03
2019-04-22T12:26:18.890Z,6.77
2019-04-22T12:28:46.839Z,5.97
2019-04-22T12:31:17.664Z,4.70
2019-04-22T12:33:47.650Z,4.60
2019-04-22T12:36:20.282Z,6.57
2019-04-22T12:38:49.818Z,4.77
2019-04-22T12:41:19.764Z,6.17
2019-04-22T12:43:49.619Z,5.57
2019-04-22T12:46:20.381Z,4.90
2019-04-22T12:48:50.039Z,6.40
2019-04-22T12:51:20.830Z,5.57
2019-04-22T12:53:50.925Z,5.83
2019-04-22T12:56:21.764Z,6.80
2019-04-22T12:58:51.784Z,5.63
2019-04-22T13:01:21.541Z,4.67
2019-04-22T13:03:52.079Z,4.23
2019-04-22T13:06:21.828Z,9.10
2019-04-22T13:08:52.433Z,4.67
2019-04-22T13:11:28.173Z,4.40
2019-04-22T13:13:54.656Z,4.83
2019-04-22T13:16:25.019Z,6.13
2019-04-22T13:19:00.155Z,7.10
2019-04-22T13:21:26.770Z,6.93
2019-04-22T13:23:57.107Z,4.23
2019-04-22T13:26:27.160Z,6.20
2019-04-22T13:28:57.039Z,4.90
2019-04-22T13:31:26.883Z,3.67
2019-04-22T13:33:59.733Z,3.90
2019-04-22T13:36:29.747Z,4.20
2019-04-22T13:39:00.425Z,5.23
2019-04-22T13:41:39.594Z,5.97
2019-04-22T13:44:02.014Z,5.73
2019-04-22T13:46:33.635Z,5.93
2019-04-22T13:49:38.272Z,4.00
2019-04-22T13:57:00.683Z,5.93
2019-04-22T13:59:18.309Z,3.93
2019-04-22T14:01:50.738Z,6.50
2019-04-22T14:04:24.793Z,4.30
2019-04-22T14:06:54.612Z,8.53
2019-04-22T14:09:24.492Z,10.77
2019-04-22T14:11:58.275Z,9.33
2019-04-22T14:14:25.977Z,6.80
2019-04-22T14:16:55.664Z,6.67
2019-04-22T14:19:25.999Z,6.93
2019-04-22T14:21:55.738Z,5.37
2019-04-22T14:24:25.977Z,3.97
2019-04-22T14:27:13.261Z,6.87
2019-04-22T14:29:26.639Z,4.37
2019-04-22T14:34:28.550Z,4.70
2019-04-22T14:37:01.398Z,5.87
2019-04-22T14:39:31.444Z,5.47
2019-04-22T14:42:27.033Z,6.27
2019-04-22T14:44:36.833Z,4.37
2019-04-22T14:47:25.747Z,5.90
2019-04-22T14:49:52.825Z,4.17
2019-04-22T14:52:30.697Z,4.57
2019-04-22T14:54:51.818Z,5.10
2019-04-22T14:57:10.857Z,6.47
2019-04-22T14:59:41.700Z,5.37
2019-04-22T15:02:12.250Z,3.80
2019-04-22T15:04:43.015Z,5.53
2019-04-22T15:07:12.804Z,5.13
2019-04-22T15:09:44.033Z,4.43
2019-04-22T15:12:20.596Z,5.27
2019-04-22T15:14:45.781Z,7.30
2019-04-22T15:17:18.588Z,5.60
2019-04-22T15:19:58.599Z,4.03
2019-04-22T15:22:28.439Z,3.33
2019-04-22T15:24:58.600Z,3.20
2019-04-22T15:27:30.941Z,4.00
2019-04-22T15:29:59.300Z,3.53
2019-04-22T15:32:29.560Z,5.60
2019-04-22T15:34:59.580Z,8.90
2019-04-22T15:37:43.304Z,4.90
2019-04-22T15:40:13.599Z,4.97
2019-04-22T15:42:44.929Z,4.80
2019-04-22T15:45:16.592Z,5.70
2019-04-22T15:47:46.242Z,6.03
2019-04-22T15:50:18.879Z,5.63
2019-04-22T15:52:53.044Z,4.77
2019-04-22T15:55:20.737Z,3.80
2019-04-22T15:57:50.286Z,4.40
2019-04-22T16:00:33.155Z,4.50
2019-04-22T16:02:51.989Z,5.77
2019-04-22T16:05:22.528Z,5.33
2019-04-22T16:07:53.030Z,4.47
2019-04-22T16:10:23.949Z,4.77
2019-04-22T16:13:03.463Z,4.43
2019-04-22T16:15:24.814Z,4.97
2019-04-22T16:17:54.975Z,3.70
2019-04-22T16:20:25.878Z,3.20
2019-04-22T16:23:07.747Z,5.30
2019-04-22T16:25:45.344Z,3.53
2019-04-22T16:28:17.312Z,8.37
2019-04-22T16:30:47.083Z,3.57
2019-04-22T16:33:17.290Z,3.13
2019-04-22T16:35:48.802Z,3.60
2019-04-22T16:38:19.167Z,4.17
2019-04-22T16:40:48.896Z,4.70
2019-04-22T16:43:19.483Z,4.80
2019-04-22T16:45:49.677Z,4.03
2019-04-22T16:48:19.843Z,4.07
2019-04-22T16:50:52.230Z,6.20
2019-04-22T16:53:20.895Z,3.87
2019-04-22T16:55:50.831Z,3.50
2019-04-22T16:58:20.845Z,5.57
2019-04-22T17:00:50.385Z,3.43
2019-04-22T17:03:28.956Z,3.90
2019-04-22T17:06:12.124Z,3.73
2019-04-22T17:08:42.565Z,3.57
2019-04-22T17:11:13.852Z,4.13
2019-04-22T17:13:44.552Z,8.30
2019-04-22T17:16:16.018Z,4.20
2019-04-22T17:18:47.136Z,3.40
2019-04-22T17:21:17.580Z,3.87
2019-04-22T17:23:47.573Z,4.50
2019-04-22T17:26:18.750Z,5.17
2019-04-22T17:28:49.341Z,4.03
2019-04-22T17:31:20.630Z,3.97
2019-04-22T17:33:50.794Z,4.67
2019-04-22T17:36:20.591Z,5.20
2019-04-22T17:38:58.384Z,5.03
2019-04-22T17:41:34.406Z,5.10
2019-04-22T17:44:18.581Z,5.37
2019-04-22T17:46:48.356Z,4.70
2019-04-22T17:49:50.568Z,3.27
2019-04-22T17:57:22.385Z,3.47
2019-04-22T17:59:50.605Z,3.40
2019-04-22T18:02:24.993Z,3.40
2019-04-22T18:04:42.896Z,6.37
2019-04-22T18:10:24.266Z,3.27
2019-04-22T18:12:39.801Z,4.50
2019-04-22T18:15:04.052Z,4.70
2019-04-22T18:17:37.345Z,6.97
2019-04-22T18:20:02.671Z,3.13
2019-04-22T18:22:24.500Z,3.00
2019-04-22T18:24:58.414Z,4.40
2019-04-22T18:30:03.909Z,3.87
2019-04-22T18:32:38.041Z,4.67
2019-04-22T18:35:11.751Z,3.70
2019-04-22T18:37:46.998Z,3.27
2019-04-22T18:40:15.861Z,5.63
2019-04-22T18:42:49.433Z,8.30
2019-04-22T18:45:29.617Z,5.43
2019-04-22T18:47:44.212Z,3.37
2019-04-22T18:50:21.819Z,3.97
2019-04-22T18:52:54.563Z,3.50
2019-04-22T18:55:34.021Z,5.53
2019-04-22T18:58:08.924Z,3.63
2019-04-22T19:00:34.220Z,4.67
2019-04-22T19:03:13.491Z,3.53
2019-04-22T19:06:02.628Z,3.63
2019-04-22T19:08:33.354Z,5.97
2019-04-22T19:11:08.145Z,4.33
2019-04-22T19:16:21.065Z,8.37
2019-04-22T19:18:41.852Z,3.30
2019-04-22T19:21:15.078Z,3.50
2019-04-22T19:23:54.070Z,6.47
2019-04-22T19:26:36.608Z,7.97
2019-04-22T19:28:54.425Z,6.70
2019-04-22T19:31:25.032Z,4.10
2019-04-22T19:34:00.757Z,7.17
2019-04-22T19:36:26.175Z,4.60
2019-04-22T19:39:02.928Z,5.73
2019-04-22T19:41:30.590Z,4.20
2019-04-22T19:44:05.559Z,4.67
2019-04-22T19:46:33.255Z,5.43
2019-04-22T19:49:12.030Z,3.43
2019-04-22T19:51:47.636Z,5.03
2019-04-22T19:54:07.675Z,4.93
2019-04-22T19:56:33.729Z,4.50
2019-04-22T19:59:06.338Z,8.17
2019-04-22T20:01:49.272Z,5.10
2019-04-22T20:04:41.703Z,5.13
2019-04-22T20:06:59.117Z,4.40
2019-04-22T20:09:39.858Z,5.13
2019-04-22T20:12:02.831Z,4.13
2019-04-22T20:14:35.780Z,5.40
2019-04-22T20:17:00.471Z,6.53
2019-04-22T20:19:48.066Z,5.43
2019-04-22T20:22:09.592Z,6.43
2019-04-22T20:24:27.654Z,3.63
2019-04-22T20:27:13.591Z,4.73
2019-04-22T20:29:41.721Z,5.67
2019-04-22T20:32:12.326Z,4.67
2019-04-22T20:34:44.055Z,5.57
2019-04-22T20:37:28.544Z,4.23
2019-04-22T20:39:50.260Z,3.90
2019-04-22T20:42:31.102Z,3.40
2019-04-22T20:44:52.031Z,3.83
2019-04-22T20:47:16.487Z,5.33
2019-04-22T20:49:54.588Z,7.43
2019-04-22T20:52:33.122Z,9.23
2019-04-22T20:54:50.957Z,6.00
2019-04-22T20:57:25.471Z,4.40
2019-04-22T20:59:52.203Z,5.67
2019-04-22T21:02:23.887Z,7.57
2019-04-22T21:04:43.176Z,7.37
2019-04-22T21:07:26.783Z,4.43
2019-04-22T21:09:59.404Z,3.83
2019-04-22T21:12:22.407Z,4.97
2019-04-22T21:15:06.790Z,6.23
2019-04-22T21:17:34.800Z,5.63
2019-04-22T21:20:15.575Z,4.30
2019-04-22T21:22:40.445Z,3.83
2019-04-22T21:25:02.381Z,7.60
2019-04-22T21:27:45.352Z,4.83
2019-04-22T21:30:03.318Z,4.40
2019-04-22T21:32:39.101Z,8.50
2019-04-22T21:35:17.832Z,8.23
2019-04-22T21:37:43.121Z,5.63
2019-04-22T21:40:17.884Z,3.47
2019-04-22T21:42:48.617Z,4.67
2019-04-22T21:45:16.668Z,4.90
2019-04-22T21:47:58.849Z,4.10
2019-04-22T21:50:35.661Z,5.00
2019-04-22T21:52:56.922Z,5.27
2019-04-22T21:55:23.710Z,6.60
2019-04-22T21:58:05.273Z,6.30
2019-04-22T22:03:10.888Z,4.37
2019-04-22T22:05:28.649Z,7.00
2019-04-22T22:07:55.836Z,4.10
2019-04-22T22:10:41.804Z,6.23
2019-04-22T22:13:10.992Z,6.00
2019-04-22T22:15:42.229Z,4.97
2019-04-22T22:18:09.726Z,5.37
2019-04-22T22:20:52.407Z,8.90
2019-04-22T22:23:22.254Z,6.10
2019-04-22T22:25:46.802Z,5.47
2019-04-22T22:28:38.305Z,6.00
2019-04-22T22:30:58.246Z,5.43
2019-04-22T22:33:17.393Z,8.17
2019-04-22T22:35:45.766Z,5.20
2019-04-22T22:38:19.599Z,7.20
2019-04-22T22:40:35.893Z,5.87
2019-04-22T22:43:11.776Z,5.40
2019-04-22T22:45:43.802Z,8.03
2019-04-22T22:50:52.148Z,6.47
2019-04-22T22:53:36.854Z,4.90
2019-04-22T22:55:57.692Z,5.10
2019-04-22T22:58:34.860Z,7.60
2019-04-22T23:00:59.500Z,8.83
2019-04-22T23:06:12.817Z,7.90
2019-04-22T23:08:39.921Z,5.37
2019-04-22T23:11:16.981Z,7.23
2019-04-22T23:13:38.677Z,6.83
2019-04-22T23:16:00.946Z,6.40
2019-04-22T23:18:19.863Z,9.83
2019-04-22T23:20:51.773Z,7.10
2019-04-22T23:23:40.870Z,6.50
2019-04-22T23:26:10.308Z,7.07
2019-04-22T23:28:40.098Z,12.77
2019-04-22T23:31:21.146Z,5.37
2019-04-22T23:34:00.956Z,5.03
2019-04-22T23:36:54.522Z,5.57
2019-04-22T23:39:37.277Z,5.63
2019-04-22T23:42:18.906Z,7.23
2019-04-22T23:44:35.020Z,7.57
2019-04-22T23:47:02.017Z,6.43
2019-04-22T23:49:30.256Z,5.70
2019-04-22T23:52:09.038Z,8.07
2019-04-22T23:54:48.554Z,6.13
2019-04-22T23:57:03.424Z,5.27
